Time;durP1;ratioP1;P1;durP2;ratioP2;P2;SDS_P1;SDS_P2;PMS_P1;PMS_P2;Temp;Humidity;BMP_temperature;BMP_pressure;BME280_temperature;BME280_humidity;BME280_pressure;Samples;Min_cycle;Max_cycle;Signal;HPM_P1;HPM_P2
2020/12/14 00:02:17;;;;;;;46.90;20.70;;;128.10;2252.80;;;;;;5099774;28;20102;-71
2020/12/14 00:04:44;;;;;;;52.05;20.77;;;128.00;2252.80;;;;;;5100081;28;20451;-71
2020/12/14 00:07:10;;;;;;;47.38;20.15;;;128.10;2252.80;;;;;;5099358;28;20379;-71
2020/12/14 00:09:36;;;;;;;40.42;19.15;;;128.10;2252.80;;;;;;5100164;28;20058;-70
2020/12/14 00:12:02;;;;;;;40.30;18.38;;;128.10;2252.80;;;;;;5100011;28;20035;-71
2020/12/14 00:14:28;;;;;;;40.63;17.40;;;128.00;2252.80;;;;;;5100079;28;20257;-71
2020/12/14 00:16:54;;;;;;;41.75;18.35;;;128.00;2252.80;;;;;;5100057;28;20106;-70
2020/12/14 00:19:21;;;;;;;40.88;18.63;;;128.00;2252.80;;;;;;5100092;28;20051;-70
2020/12/14 00:21:50;;;;;;;42.00;18.25;;;128.00;2252.80;;;;;;5099362;28;20392;-70
2020/12/14 00:24:15;;;;;;;;;;;128.20;2252.80;;;;;;5100135;28;20407;-70
2020/12/14 00:26:41;;;;;;;40.03;16.65;;;128.20;2252.80;;;;;;5099949;28;19949;-71
2020/12/14 00:29:07;;;;;;;38.78;16.75;;;128.30;2252.80;;;;;;5099845;28;20028;-70
2020/12/14 00:31:33;;;;;;;38.80;16.15;;;128.30;2252.80;;;;;;5099409;28;20326;-72
2020/12/14 00:33:58;;;;;;;39.20;17.77;;;128.30;2252.80;;;;;;5099789;28;20032;-71
2020/12/14 00:36:24;;;;;;;40.05;18.40;;;128.30;2252.80;;;;;;5099430;28;20024;-70
2020/12/14 00:38:50;;;;;;;38.28;16.75;;;128.40;2252.80;;;;;;5099935;28;20082;-72
2020/12/14 00:41:18;;;;;;;35.88;16.50;;;128.50;2252.80;;;;;;5099615;28;20046;-71
2020/12/14 00:43:44;;;;;;;35.77;17.10;;;128.50;2252.80;;;;;;5099006;28;20020;-71
2020/12/14 00:46:14;;;;;;;39.40;17.92;;;128.50;2252.80;;;;;;5099480;28;20027;-71
2020/12/14 00:48:40;;;;;;;34.97;16.08;;;128.50;2252.80;;;;;;5099830;28;20027;-70
2020/12/14 00:51:06;;;;;;;33.97;16.10;;;128.50;2252.80;;;;;;5098804;28;20034;-69
2020/12/14 00:53:35;;;;;;;37.65;16.90;;;128.60;2252.80;;;;;;5099419;28;20024;-70
2020/12/14 00:56:04;;;;;;;;;;;128.50;2252.80;;;;;;5100018;28;20028;-72
2020/12/14 00:58:31;;;;;;;39.00;16.63;;;128.50;2252.80;;;;;;5099062;28;19904;-71
2020/12/14 01:00:58;;;;;;;39.90;17.88;;;128.40;2252.80;;;;;;5098948;28;20343;-72
2020/12/14 01:03:24;;;;;;;41.97;18.13;;;128.40;2252.80;;;;;;5098679;28;20032;-71
2020/12/14 01:05:50;;;;;;;45.10;19.35;;;128.40;2252.80;;;;;;5099044;28;20020;-70
2020/12/14 01:08:18;;;;;;;48.88;19.13;;;128.50;2252.80;;;;;;5099415;28;20028;-69
2020/12/14 01:10:45;;;;;;;40.50;18.02;;;128.50;2252.80;;;;;;5098365;28;20069;-69
2020/12/14 01:13:10;;;;;;;36.30;17.42;;;128.60;2252.80;;;;;;5098733;28;20324;-70
2020/12/14 01:15:36;;;;;;;39.00;17.75;;;128.60;2252.80;;;;;;5098931;28;20156;-70
2020/12/14 01:18:02;;;;;;;36.50;17.20;;;128.60;2252.80;;;;;;5098117;28;20127;-70
2020/12/14 01:20:28;;;;;;;34.33;16.60;;;128.70;2252.80;;;;;;5098534;28;20031;-70
2020/12/14 01:22:53;;;;;;;38.20;16.58;;;128.70;2252.80;;;;;;5099099;28;20111;-70
2020/12/14 01:25:19;;;;;;;34.53;16.65;;;128.60;2252.80;;;;;;5098773;28;20031;-70
2020/12/14 01:27:45;;;;;;;34.28;16.27;;;128.70;2252.80;;;;;;5098985;28;20031;-70
2020/12/14 01:30:11;;;;;;;30.35;15.13;;;128.80;2252.80;;;;;;5098368;28;20055;-71
2020/12/14 01:32:36;;;;;;;34.10;16.92;;;128.70;2252.80;;;;;;5097970;28;20430;-71
2020/12/14 01:35:03;;;;;;;36.85;16.23;;;128.70;2252.80;;;;;;5098845;28;20032;-70
2020/12/14 01:37:29;;;;;;;34.28;15.60;;;128.70;2252.80;;;;;;5098243;28;20094;-71
2020/12/14 01:39:54;;;;;;;34.92;15.45;;;128.60;2252.80;;;;;;5098173;28;20028;-72
2020/12/14 01:42:22;;;;;;;32.70;15.85;;;128.50;2252.80;;;;;;5098425;28;20119;-70
2020/12/14 01:44:50;;;;;;;31.38;15.00;;;128.50;2252.80;;;;;;5098654;28;20020;-69
2020/12/14 01:47:29;;;;;;;39.60;15.85;;;128.50;2252.80;;;;;;5098351;28;20015;-72
2020/12/14 01:49:54;;;;;;;;;;;128.40;2252.80;;;;;;5099056;28;20016;-71
2020/12/14 01:52:21;;;;;;;34.80;15.45;;;128.40;2252.80;;;;;;5097900;28;19912;-69
2020/12/14 01:54:48;;;;;;;40.63;15.85;;;128.30;2252.80;;;;;;5098214;28;20333;-71
2020/12/14 01:57:14;;;;;;;34.95;14.98;;;128.30;2252.80;;;;;;5097412;28;20020;-70
2020/12/14 01:59:40;;;;;;;32.53;14.02;;;128.30;2252.80;;;;;;5097547;28;20028;-72
2020/12/14 02:02:06;;;;;;;27.50;13.23;;;128.30;2252.80;;;;;;5097741;28;20048;-70
2020/12/14 02:04:31;;;;;;;30.73;14.35;;;128.30;2252.80;;;;;;5098354;28;20304;-70
2020/12/14 02:06:57;;;;;;;28.85;12.90;;;128.30;2252.80;;;;;;5097641;28;20024;-72
2020/12/14 02:09:23;;;;;;;28.25;12.50;;;128.30;2252.80;;;;;;5097978;28;20028;-70
2020/12/14 02:11:49;;;;;;;26.55;13.38;;;128.20;2252.80;;;;;;5097801;28;20023;-70
2020/12/14 02:14:14;;;;;;;22.38;11.57;;;128.30;2252.80;;;;;;5097620;28;20425;-70
2020/12/14 02:16:40;;;;;;;27.25;12.13;;;128.30;2252.80;;;;;;5097781;28;20024;-70
2020/12/14 02:19:06;;;;;;;23.67;11.13;;;128.30;2252.80;;;;;;5098072;28;20103;-69
2020/12/14 02:21:32;;;;;;;21.48;10.88;;;128.30;2252.80;;;;;;5097168;28;20027;-70
2020/12/14 02:23:57;;;;;;;26.23;12.77;;;128.40;2252.80;;;;;;5097687;28;20056;-71
2020/12/14 02:26:23;;;;;;;24.02;11.75;;;128.40;2252.80;;;;;;5097615;28;20077;-70
2020/12/14 02:28:49;;;;;;;25.67;12.18;;;128.30;2252.80;;;;;;5097070;28;20028;-71
2020/12/14 02:31:15;;;;;;;20.00;10.32;;;128.50;2252.80;;;;;;5097513;28;20434;-69
2020/12/14 02:33:40;;;;;;;21.42;10.73;;;128.40;2252.80;;;;;;5097516;28;20354;-71
2020/12/14 02:36:06;;;;;;;19.10;10.82;;;128.40;2252.80;;;;;;5097545;28;20023;-70
2020/12/14 02:38:32;;;;;;;19.40;9.82;;;128.40;2252.80;;;;;;5097172;28;20099;-70
2020/12/14 02:40:58;;;;;;;21.38;11.50;;;128.40;2252.80;;;;;;5097477;28;20023;-72
2020/12/14 02:43:23;;;;;;;18.00;10.52;;;128.50;2252.80;;;;;;5096863;28;20054;-70
2020/12/14 02:45:49;;;;;;;20.25;11.00;;;128.50;2252.80;;;;;;5096851;28;20077;-71
2020/12/14 02:48:15;;;;;;;19.08;10.13;;;128.40;2252.80;;;;;;5097194;28;20055;-69
2020/12/14 02:50:41;;;;;;;20.70;10.90;;;128.50;2252.80;;;;;;5097261;28;20074;-70
2020/12/14 02:53:07;;;;;;;20.23;10.25;;;128.50;2252.80;;;;;;5096777;28;20024;-70
2020/12/14 02:55:32;;;;;;;17.20;10.25;;;128.50;2252.80;;;;;;5097042;28;20023;-71
2020/12/14 02:57:58;;;;;;;17.98;10.18;;;128.50;2252.80;;;;;;5097566;28;20380;-71
2020/12/14 03:00:24;;;;;;;20.13;10.25;;;128.50;2252.80;;;;;;5097227;28;20024;-70
2020/12/14 03:02:50;;;;;;;18.35;10.25;;;128.40;2252.80;;;;;;5097547;28;20334;-70
2020/12/14 03:05:15;;;;;;;20.88;10.10;;;128.40;2252.80;;;;;;5097500;28;20024;-71
2020/12/14 03:07:41;;;;;;;19.25;10.35;;;128.50;2252.80;;;;;;5098883;28;20028;-69
2020/12/14 03:10:07;;;;;;;18.33;9.70;;;128.50;2252.80;;;;;;5100819;28;20031;-69
2020/12/14 03:12:33;;;;;;;18.92;9.50;;;128.50;2252.80;;;;;;5101595;28;20028;-71
2020/12/14 03:15:02;;;;;;;17.23;9.60;;;128.40;2252.80;;;;;;5101611;28;20082;-71
2020/12/14 03:17:28;;;;;;;14.75;9.27;;;128.30;2252.80;;;;;;5100919;28;20027;-71
2020/12/14 03:19:54;;;;;;;16.98;9.60;;;128.40;2252.80;;;;;;5101223;28;20028;-71
2020/12/14 03:22:20;;;;;;;17.67;9.63;;;128.40;2252.80;;;;;;5101148;28;20437;-71
2020/12/14 03:24:46;;;;;;;17.02;8.98;;;128.50;2252.80;;;;;;5100757;28;20027;-70
2020/12/14 03:27:12;;;;;;;15.05;8.38;;;128.50;2252.80;;;;;;5100470;28;20024;-69
2020/12/14 03:29:38;;;;;;;18.92;9.98;;;128.50;2252.80;;;;;;5101052;28;20023;-70
2020/12/14 03:32:04;;;;;;;19.33;9.18;;;128.50;2252.80;;;;;;5100836;28;20330;-69
2020/12/14 03:34:29;;;;;;;16.08;8.25;;;128.50;2252.80;;;;;;5101200;28;20035;-70
2020/12/14 03:36:57;;;;;;;16.98;9.50;;;128.50;2252.80;;;;;;5100555;28;20024;-71
2020/12/14 03:39:22;;;;;;;15.25;8.90;;;128.40;2252.80;;;;;;5100472;28;20031;-70
2020/12/14 03:41:50;;;;;;;18.33;9.25;;;128.40;2252.80;;;;;;5100512;28;20027;-70
2020/12/14 03:44:16;;;;;;;14.52;8.52;;;128.30;2252.80;;;;;;5100644;28;20020;-70
2020/12/14 03:46:42;;;;;;;16.80;7.93;;;128.40;2252.80;;;;;;5100944;28;20308;-68
2020/12/14 03:49:09;;;;;;;12.05;7.13;;;128.30;2252.80;;;;;;5100307;28;20020;-70
2020/12/14 03:51:35;;;;;;;14.25;7.30;;;128.40;2252.80;;;;;;5100193;28;20110;-70
2020/12/14 03:54:01;;;;;;;14.48;7.10;;;128.30;2252.80;;;;;;5100535;28;20032;-69
2020/12/14 03:56:27;;;;;;;13.68;7.82;;;128.30;2252.80;;;;;;5100496;28;20073;-71
2020/12/14 03:58:53;;;;;;;12.57;7.20;;;128.30;2252.80;;;;;;5100108;28;20019;-70
2020/12/14 04:01:23;;;;;;;13.95;7.28;;;128.30;2252.80;;;;;;5100003;28;20371;-70
2020/12/14 04:03:50;;;;;;;12.13;7.40;;;128.20;2252.80;;;;;;5100389;28;20101;-71
2020/12/14 04:06:23;;;;;;;15.95;7.97;;;128.20;2252.80;;;;;;5100270;28;20028;-70
2020/12/14 04:08:50;;;;;;;14.13;7.93;;;128.20;2252.80;;;;;;5099997;28;20315;-71
2020/12/14 04:11:16;;;;;;;19.42;8.45;;;128.10;2252.80;;;;;;5100101;28;20122;-71
2020/12/14 04:13:42;;;;;;;14.40;8.52;;;128.10;2252.80;;;;;;5099878;28;20028;-70
2020/12/14 04:16:09;;;;;;;16.70;8.80;;;128.10;2252.80;;;;;;5100372;28;20092;-68
2020/12/14 04:18:35;;;;;;;13.55;7.75;;;128.20;2252.80;;;;;;5099607;28;20403;-70
2020/12/14 04:21:02;;;;;;;15.05;7.40;;;128.10;2252.80;;;;;;5099442;28;20028;-71
2020/12/14 04:23:27;;;;;;;16.02;7.55;;;128.20;2252.80;;;;;;5100291;28;20085;-71
2020/12/14 04:25:53;;;;;;;13.25;7.40;;;128.20;2252.80;;;;;;5099663;28;20027;-71
2020/12/14 04:28:19;;;;;;;13.68;7.95;;;128.20;2252.80;;;;;;5099629;28;20063;-71
2020/12/14 04:30:45;;;;;;;11.98;6.95;;;128.10;2252.80;;;;;;5099765;28;20032;-71
2020/12/14 04:33:10;;;;;;;12.77;7.63;;;128.20;2252.80;;;;;;5099257;28;20081;-69
2020/12/14 04:35:36;;;;;;;13.40;7.53;;;128.20;2252.80;;;;;;5099747;28;20103;-70
2020/12/14 04:38:02;;;;;;;9.98;6.40;;;128.10;2252.80;;;;;;5099724;28;20030;-70
2020/12/14 04:40:29;;;;;;;13.38;6.55;;;128.20;2252.80;;;;;;5099404;28;20054;-69
2020/12/14 04:42:59;;;;;;;11.80;6.70;;;128.10;2252.80;;;;;;5099913;28;20020;-70
2020/12/14 04:45:26;;;;;;;9.55;5.75;;;128.20;2252.80;;;;;;5099864;28;20024;-69
2020/12/14 04:47:58;;;;;;;10.82;6.45;;;128.10;2252.80;;;;;;5099026;28;20330;-69
2020/12/14 04:50:26;;;;;;;8.70;5.30;;;128.10;2252.80;;;;;;5099458;28;20422;-71
2020/12/14 04:52:53;;;;;;;10.90;6.15;;;128.00;2252.80;;;;;;5099170;28;20519;-70
2020/12/14 04:55:21;;;;;;;11.23;5.20;;;128.00;2252.80;;;;;;5099128;28;20047;-70
2020/12/14 04:57:47;;;;;;;9.93;5.55;;;128.00;2252.80;;;;;;5099073;28;20069;-71
2020/12/14 05:00:20;;;;;;;9.80;5.68;;;128.10;2252.80;;;;;;5099602;28;20046;-69
2020/12/14 05:02:54;;;;;;;8.65;5.47;;;128.10;2252.80;;;;;;5098628;28;20048;-69
2020/12/14 05:05:20;;;;;;;8.07;4.65;;;128.10;2252.80;;;;;;5099497;28;20032;-72
2020/12/14 05:07:46;;;;;;;8.02;4.90;;;128.10;2252.80;;;;;;5087387;28;20020;-70
2020/12/14 05:10:12;;;;;;;8.70;5.30;;;128.00;2252.80;;;;;;5078648;28;20028;-70
2020/12/14 05:12:45;;;;;;;7.47;4.53;;;128.00;2252.80;;;;;;5077529;28;20035;-72
2020/12/14 05:15:29;;;;;;;13.25;5.95;;;128.00;2252.80;;;;;;5078819;28;20429;-70
2020/12/14 05:18:14;;;;;;;7.80;5.32;;;128.00;2252.80;;;;;;5078642;28;20422;-71
2020/12/14 05:20:56;;;;;;;8.82;5.30;;;128.00;2252.80;;;;;;5078900;28;20479;-69
2020/12/14 05:23:22;;;;;;;8.18;5.20;;;128.10;2252.80;;;;;;5078274;28;20020;-69
2020/12/14 05:25:47;;;;;;;10.00;6.10;;;128.20;2252.80;;;;;;5078698;28;20024;-70
2020/12/14 05:28:16;;;;;;;9.27;5.90;;;128.20;2252.80;;;;;;5078455;28;20032;-70
2020/12/14 05:30:50;;;;;;;13.38;5.85;;;128.10;2252.80;;;;;;5076899;28;20020;-72
2020/12/14 05:33:19;;;;;;;8.35;5.22;;;128.10;2252.80;;;;;;5078367;28;20036;-71
2020/12/14 05:35:46;;;;;;;10.35;5.75;;;128.00;2252.80;;;;;;5078229;28;20020;-71
2020/12/14 05:38:21;;;;;;;10.77;6.10;;;128.10;2252.80;;;;;;5078013;28;20025;-72
2020/12/14 05:40:52;;;;;;;10.88;6.43;;;128.00;2252.80;;;;;;5078483;28;20050;-69
2020/12/14 05:43:20;;;;;;;12.25;7.18;;;103.30;2227.20;;;;;;5078221;28;20331;-70
2020/12/14 05:45:47;;;;;;;11.85;6.93;;;128.00;2252.80;;;;;;5078123;28;20024;-70
2020/12/14 05:48:31;;;;;;;15.25;7.95;;;128.00;2252.80;;;;;;5078341;28;20029;-71
2020/12/14 05:51:03;;;;;;;12.93;7.80;;;128.00;2252.80;;;;;;5077959;28;20110;-70
2020/12/14 05:53:33;;;;;;;13.63;7.85;;;128.00;2252.80;;;;;;5077991;28;20028;-71
2020/12/14 05:56:00;;;;;;;11.32;6.65;;;103.30;2227.20;;;;;;5078146;28;20036;-71
2020/12/14 05:58:29;;;;;;;12.95;7.13;;;103.20;2227.20;;;;;;5077782;28;20020;-71
2020/12/14 06:00:55;;;;;;;11.90;6.63;;;103.20;2227.20;;;;;;5081947;28;20055;-70
2020/12/14 06:03:25;;;;;;;17.02;8.77;;;103.20;2227.20;;;;;;5098384;28;20082;-70
2020/12/14 06:06:04;;;;;;;12.60;7.45;;;103.20;2227.20;;;;;;5097719;28;20066;-70
2020/12/14 06:08:46;;;;;;;12.55;7.75;;;103.20;2227.20;;;;;;5097444;28;20056;-71
2020/12/14 06:11:12;;;;;;;14.00;8.30;;;103.20;2227.20;;;;;;5097617;28;20136;-70
2020/12/14 06:13:49;;;;;;;14.90;9.10;;;103.20;2227.20;;;;;;5097794;28;20032;-70
2020/12/14 06:16:21;;;;;;;19.27;9.55;;;103.10;2227.20;;;;;;5098131;28;20019;-71
2020/12/14 06:18:47;;;;;;;16.70;8.75;;;103.10;2227.20;;;;;;5097784;28;20077;-70
2020/12/14 06:21:23;;;;;;;19.08;10.70;;;103.10;2227.20;;;;;;5097756;28;20028;-71
2020/12/14 06:23:50;;;;;;;16.55;9.18;;;103.00;2227.20;;;;;;5097986;28;20123;-70
2020/12/14 06:26:20;;;;;;;18.08;8.70;;;103.10;2227.20;;;;;;5097382;28;20031;-71
2020/12/14 06:28:50;;;;;;;22.42;10.30;;;102.90;2227.20;;;;;;5097936;28;20027;-71
2020/12/14 06:31:31;;;;;;;20.40;9.90;;;103.00;2227.20;;;;;;5097705;28;20115;-70
2020/12/14 06:33:57;;;;;;;19.35;8.50;;;103.00;2227.20;;;;;;5097182;28;20028;-70
2020/12/14 06:36:27;;;;;;;19.23;9.38;;;103.00;2227.20;;;;;;5097249;28;20024;-71
2020/12/14 06:38:54;;;;;;;17.77;8.73;;;102.90;2227.20;;;;;;5097533;28;20036;-69
2020/12/14 06:41:21;;;;;;;23.08;9.73;;;103.00;2227.20;;;;;;5096818;28;20351;-71
2020/12/14 06:43:50;;;;;;;23.88;9.90;;;103.10;2227.20;;;;;;5096976;28;20024;-69
2020/12/14 06:46:29;;;;;;;22.95;8.90;;;103.10;2227.20;;;;;;5097415;28;20027;-70
2020/12/14 06:48:55;;;;;;;22.65;9.55;;;103.10;2227.20;;;;;;5097659;28;20027;-71
2020/12/14 06:51:21;;;;;;;19.15;9.82;;;103.00;2227.20;;;;;;5097245;28;20027;-70
2020/12/14 06:53:52;;;;;;;25.10;11.07;;;103.00;2227.20;;;;;;5105101;28;20038;-68
2020/12/14 06:56:38;;;;;;;20.27;10.35;;;102.90;2227.20;;;;;;5117117;28;20023;-69
2020/12/14 06:59:27;;;;;;;20.30;9.80;;;102.90;2227.20;;;;;;5082626;28;20088;-71
2020/12/14 07:01:58;;;;;;;20.60;10.45;;;102.90;2227.20;;;;;;5116058;28;20379;-69
2020/12/14 07:04:33;;;;;;;22.20;10.32;;;102.90;2227.20;;;;;;5099230;28;20048;-71
2020/12/14 07:07:05;;;;;;;19.70;9.85;;;103.00;2227.20;;;;;;5096195;28;20070;-69
2020/12/14 07:09:31;;;;;;;19.80;9.45;;;103.00;2227.20;;;;;;5095431;28;20032;-70
2020/12/14 07:12:23;;;;;;;17.80;9.45;;;102.90;2227.20;;;;;;5095257;28;20024;-71
2020/12/14 07:14:54;;;;;;;20.23;9.55;;;102.80;2227.20;;;;;;5089905;28;20357;-70
2020/12/14 07:17:27;;;;;;;20.65;10.65;;;102.80;2227.20;;;;;;5094860;28;20488;-70
2020/12/14 07:19:56;;;;;;;17.77;9.30;;;102.80;2227.20;;;;;;5097224;28;20024;-70
2020/12/14 07:22:25;;;;;;;19.42;9.63;;;102.80;2227.20;;;;;;5096680;28;20023;-69
2020/12/14 07:25:00;;;;;;;19.13;9.80;;;102.80;2227.20;;;;;;5097468;28;20081;-71
2020/12/14 07:27:27;;;;;;;23.80;11.88;;;102.80;2227.20;;;;;;5097144;28;20460;-71
2020/12/14 07:30:10;;;;;;;19.08;9.85;;;102.80;2227.20;;;;;;5096248;28;20028;-72
2020/12/14 07:32:37;;;;;;;19.30;10.00;;;102.80;2227.20;;;;;;5096135;28;20032;-71
2020/12/14 07:35:07;;;;;;;19.58;9.85;;;102.80;2227.20;;;;;;5096743;28;20031;-69
2020/12/14 07:37:34;;;;;;;21.50;10.98;;;102.80;2227.20;;;;;;5097094;28;20030;-68
2020/12/14 07:40:00;;;;;;;17.38;9.35;;;102.80;2227.20;;;;;;5096156;28;20103;-68
2020/12/14 07:42:27;;;;;;;19.30;9.98;;;102.80;2227.20;;;;;;5095947;28;20039;-67
2020/12/14 07:45:21;;;;;;;19.55;9.00;;;102.80;2227.20;;;;;;5114506;28;20028;-68
2020/12/14 07:47:51;;;;;;;17.75;9.73;;;102.80;2227.20;;;;;;5116177;28;20114;-69
2020/12/14 07:50:18;;;;;;;19.90;10.13;;;102.90;2227.20;;;;;;5095894;28;20073;-68
2020/12/14 07:52:54;;;;;;;19.15;10.93;;;102.90;2227.20;;;;;;5099909;28;20066;-69
2020/12/14 07:55:26;;;;;;;17.52;9.45;;;102.90;2227.20;;;;;;5118572;28;20076;-68
2020/12/14 07:57:53;;;;;;;21.25;10.32;;;102.80;2227.20;;;;;;5116868;28;20020;-68
2020/12/14 08:00:24;;;;;;;20.77;10.68;;;103.00;2227.20;;;;;;5102005;28;20076;-67
2020/12/14 08:02:51;;;;;;;21.05;10.43;;;103.00;2227.20;;;;;;5099665;28;20056;-68
2020/12/14 08:05:19;;;;;;;17.52;9.20;;;103.10;2227.20;;;;;;5099585;28;20043;-69
2020/12/14 08:08:00;;;;;;;17.80;9.40;;;103.00;2227.20;;;;;;5100449;28;20028;-69
2020/12/14 08:10:34;;;;;;;17.83;9.10;;;102.90;2227.20;;;;;;5099729;28;20764;-68
2020/12/14 08:13:04;;;;;;;15.52;8.63;;;102.90;2227.20;;;;;;5099447;28;20036;-69
2020/12/14 08:15:31;;;;;;;16.38;9.07;;;102.90;2227.20;;;;;;5099791;28;20024;-69
2020/12/14 08:18:03;;;;;;;16.98;8.13;;;102.90;2227.20;;;;;;5099970;28;20020;-71
2020/12/14 08:20:32;;;;;;;16.33;9.25;;;102.90;2227.20;;;;;;5099315;28;20032;-68
2020/12/14 08:22:59;;;;;;;17.95;9.27;;;102.90;2227.20;;;;;;5106589;28;20160;-68
2020/12/14 08:25:31;;;;;;;16.02;8.73;;;102.90;2227.20;;;;;;5120018;28;20085;-68
2020/12/14 08:28:04;;;;;;;14.60;8.20;;;103.00;2227.20;;;;;;5117953;28;20081;-69
2020/12/14 08:30:31;;;;;;;18.50;10.77;;;102.90;2227.20;;;;;;5119168;28;20041;-69
2020/12/14 08:33:13;;;;;;;20.23;10.85;;;103.10;2227.20;;;;;;5117870;28;20032;-68
2020/12/14 08:35:43;;;;;;;14.48;7.90;;;103.10;2227.20;;;;;;5120013;28;20051;-68
2020/12/14 08:38:14;;;;;;;18.40;9.52;;;103.10;2227.20;;;;;;5119621;28;20027;-69
2020/12/14 08:40:49;;;;;;;18.50;9.57;;;103.20;2227.20;;;;;;5118748;28;20023;-69
2020/12/14 08:43:17;;;;;;;19.05;9.70;;;103.10;2227.20;;;;;;5118993;28;20030;-69
2020/12/14 08:46:00;;;;;;;16.75;8.80;;;103.10;2227.20;;;;;;5118483;28;20026;-69
2020/12/14 08:48:31;;;;;;;15.02;8.88;;;103.30;2227.20;;;;;;5119177;28;20124;-66
2020/12/14 08:51:08;;;;;;;17.10;9.57;;;103.30;2227.20;;;;;;5106237;28;20032;-67
2020/12/14 08:53:35;;;;;;;17.10;9.20;;;128.00;2252.80;;;;;;5115405;28;20020;-69
2020/12/14 08:56:04;;;;;;;16.42;8.65;;;128.00;2252.80;;;;;;5119325;28;20023;-69
2020/12/14 08:58:30;;;;;;;17.58;9.68;;;128.00;2252.80;;;;;;5099888;28;20035;-70
2020/12/14 09:01:07;;;;;;;15.60;8.38;;;128.00;2252.80;;;;;;5098239;28;20047;-70
2020/12/14 09:03:45;;;;;;;15.73;8.07;;;103.30;2227.20;;;;;;5098841;28;20115;-70
2020/12/14 09:06:22;;;;;;;15.45;8.52;;;103.30;2227.20;;;;;;5098431;28;20059;-69
2020/12/14 09:09:05;;;;;;;14.70;8.40;;;128.00;2252.80;;;;;;5099309;28;20023;-69
2020/12/14 09:11:33;;;;;;;16.15;8.95;;;128.00;2252.80;;;;;;5098827;28;20036;-70
2020/12/14 09:14:00;;;;;;;15.00;8.73;;;128.10;2252.80;;;;;;5098638;28;20035;-70
2020/12/14 09:16:27;;;;;;;17.33;8.65;;;128.10;2252.80;;;;;;5098915;28;20031;-71
2020/12/14 09:18:54;;;;;;;20.80;9.82;;;128.00;2252.80;;;;;;5098800;28;20020;-70
2020/12/14 09:21:20;;;;;;;17.08;8.80;;;128.00;2252.80;;;;;;5098410;28;20028;-70
2020/12/14 09:24:12;;;;;;;16.20;8.70;;;128.00;2252.80;;;;;;5098931;28;20024;-71
2020/12/14 09:26:39;;;;;;;18.98;9.65;;;128.00;2252.80;;;;;;5098952;28;20450;-70
2020/12/14 09:29:04;;;;;;;17.10;9.40;;;128.00;2252.80;;;;;;5099165;28;20020;-68
2020/12/14 09:31:30;;;;;;;14.45;8.35;;;128.00;2252.80;;;;;;5118703;28;20114;-69
2020/12/14 09:33:56;;;;;;;21.42;10.52;;;128.00;2252.80;;;;;;5118404;28;20339;-66
2020/12/14 09:36:22;;;;;;;17.30;9.80;;;128.10;2252.80;;;;;;5118429;28;20058;-69
2020/12/14 09:38:48;;;;;;;19.88;10.45;;;128.10;2252.80;;;;;;5118777;28;20030;-70
2020/12/14 09:41:14;;;;;;;20.63;11.48;;;128.00;2252.80;;;;;;5118703;28;20027;-71
2020/12/14 09:43:42;;;;;;;19.70;10.02;;;128.00;2252.80;;;;;;5118373;28;20405;-71
2020/12/14 09:46:09;;;;;;;15.98;8.88;;;128.00;2252.80;;;;;;5118371;28;20047;-73
2020/12/14 09:48:34;;;;;;;23.98;12.13;;;103.30;2227.20;;;;;;5116641;28;20450;-70
2020/12/14 09:51:01;;;;;;;19.38;10.70;;;103.30;2227.20;;;;;;5116927;28;20071;-71
2020/12/14 09:53:27;;;;;;;19.02;9.25;;;128.10;2252.80;;;;;;5116894;28;20028;-72
2020/12/14 09:55:53;;;;;;;18.13;10.40;;;128.20;2252.80;;;;;;5117840;28;20030;-71
2020/12/14 09:58:18;;;;;;;18.27;9.43;;;128.20;2252.80;;;;;;5117923;28;20031;-71
2020/12/14 10:00:44;;;;;;;18.27;9.60;;;128.20;2252.80;;;;;;5118318;28;20038;-71
2020/12/14 10:03:10;;;;;;;19.73;9.68;;;128.10;2252.80;;;;;;5118283;28;20055;-70
2020/12/14 10:05:36;;;;;;;16.90;10.10;;;128.00;2252.80;;;;;;5118190;28;20026;-70
2020/12/14 10:08:02;;;;;;;18.08;9.98;;;128.00;2252.80;;;;;;5118232;28;20034;-71
2020/12/14 10:10:28;;;;;;;21.75;11.32;;;103.30;2227.20;;;;;;5118278;28;20110;-71
2020/12/14 10:12:59;;;;;;;19.25;10.77;;;103.30;2227.20;;;;;;5117751;28;20337;-71
2020/12/14 10:15:25;;;;;;;241.98;133.25;;;103.20;2227.20;;;;;;5118379;28;20028;-72
2020/12/14 10:17:50;;;;;;;25.20;15.52;;;103.20;2227.20;;;;;;5117765;28;20360;-71
2020/12/14 10:20:16;;;;;;;20.05;11.52;;;103.20;2227.20;;;;;;5117832;28;20023;-73
2020/12/14 10:22:42;;;;;;;25.25;14.93;;;103.20;2227.20;;;;;;5117934;28;20027;-70
2020/12/14 10:25:08;;;;;;;22.33;13.07;;;103.20;2227.20;;;;;;5117922;28;20023;-71
2020/12/14 10:27:34;;;;;;;22.50;11.88;;;103.20;2227.20;;;;;;5117622;28;20085;-71
2020/12/14 10:29:59;;;;;;;26.40;14.27;;;103.20;2227.20;;;;;;5118055;28;20043;-71
2020/12/14 10:32:25;;;;;;;24.45;12.65;;;103.30;2227.20;;;;;;5117243;28;20042;-72
2020/12/14 10:34:51;;;;;;;22.10;13.10;;;103.30;2227.20;;;;;;5117253;28;20035;-70
2020/12/14 10:37:17;;;;;;;23.85;13.20;;;103.30;2227.20;;;;;;5117687;28;20023;-70
2020/12/14 10:39:43;;;;;;;24.33;13.57;;;103.30;2227.20;;;;;;5118029;28;20024;-71
2020/12/14 10:42:09;;;;;;;20.30;11.65;;;103.30;2227.20;;;;;;5117008;28;20031;-71
2020/12/14 10:44:35;;;;;;;19.10;11.20;;;103.20;2227.20;;;;;;5117910;28;20020;-71
2020/12/14 10:47:07;;;;;;;26.05;12.43;;;103.20;2227.20;;;;;;5117781;28;20042;-70
2020/12/14 10:49:32;;;;;;;22.85;13.40;;;103.20;2227.20;;;;;;5117335;28;20418;-69
2020/12/14 10:52:01;;;;;;;21.92;11.40;;;103.10;2227.20;;;;;;5117379;28;20034;-70
2020/12/14 10:54:27;;;;;;;23.30;13.15;;;103.00;2227.20;;;;;;5117393;28;20089;-70
2020/12/14 10:56:53;;;;;;;24.48;12.75;;;103.10;2227.20;;;;;;5117466;28;20398;-69
2020/12/14 10:59:19;;;;;;;26.42;13.85;;;103.10;2227.20;;;;;;5117792;28;20107;-69
2020/12/14 11:01:52;;;;;;;26.58;16.08;;;103.10;2227.20;;;;;;5117032;28;20055;-70
2020/12/14 11:04:19;;;;;;;26.65;13.55;;;103.10;2227.20;;;;;;5116875;28;20026;-70
2020/12/14 11:06:45;;;;;;;23.65;12.43;;;103.20;2227.20;;;;;;5117438;28;20023;-70
2020/12/14 11:09:11;;;;;;;23.77;13.77;;;103.10;2227.20;;;;;;5117129;28;20034;-71
2020/12/14 11:11:36;;;;;;;25.30;14.15;;;103.10;2227.20;;;;;;5117425;28;20035;-70
2020/12/14 11:14:03;;;;;;;28.15;14.15;;;102.90;2227.20;;;;;;5117641;28;20024;-70
2020/12/14 11:16:31;;;;;;;26.58;14.65;;;102.80;2227.20;;;;;;5116922;28;20419;-71
2020/12/14 11:18:57;;;;;;;32.60;14.43;;;102.80;2227.20;;;;;;5116948;28;20024;-70
2020/12/14 11:21:23;;;;;;;25.88;13.95;;;102.80;2227.20;;;;;;5117432;28;20032;-70
2020/12/14 11:23:49;;;;;;;26.73;14.35;;;102.80;2227.20;;;;;;5116416;28;20019;-71
2020/12/14 11:26:15;;;;;;;25.98;14.85;;;102.80;2227.20;;;;;;5117039;28;20020;-70
2020/12/14 11:28:41;;;;;;;26.30;14.43;;;102.70;2227.20;;;;;;5118641;28;20027;-70
2020/12/14 11:31:08;;;;;;;25.45;13.88;;;102.60;2227.20;;;;;;5120940;28;20452;-70
2020/12/14 11:33:35;;;;;;;30.58;15.32;;;102.60;2227.20;;;;;;5120965;28;20535;-71
2020/12/14 11:36:02;;;;;;;25.60;13.73;;;102.60;2227.20;;;;;;5120438;28;20034;-69
2020/12/14 11:38:30;;;;;;;31.30;15.23;;;102.50;2227.20;;;;;;5117190;28;20496;-72
2020/12/14 11:40:59;;;;;;;29.20;15.23;;;102.50;2227.20;;;;;;5106383;28;20471;-71
2020/12/14 11:43:25;;;;;;;31.05;14.43;;;102.60;2227.20;;;;;;5118613;28;20622;-71
2020/12/14 11:45:51;;;;;;;30.25;16.67;;;102.50;2227.20;;;;;;5120430;28;20118;-72
2020/12/14 11:48:17;;;;;;;26.65;14.93;;;102.50;2227.20;;;;;;5121052;28;20023;-72
2020/12/14 11:50:44;;;;;;;35.47;17.23;;;102.50;2227.20;;;;;;5120667;28;20318;-72
2020/12/14 11:53:10;;;;;;;33.10;16.95;;;102.60;2227.20;;;;;;5120268;28;20023;-71
2020/12/14 11:55:39;;;;;;;31.67;15.73;;;102.60;2227.20;;;;;;5121067;28;20361;-70
2020/12/14 11:58:05;;;;;;;;;;;102.60;2227.20;;;;;;5120807;28;20039;-71
2020/12/14 12:03:06;;;;;;;30.15;16.35;;;102.50;2227.20;;;;;;4885583;22;20069;-72
2020/12/14 12:05:32;;;;;;;32.78;17.23;;;102.50;2227.20;;;;;;5074996;28;20441;-72
2020/12/14 12:07:58;;;;;;;34.67;19.38;;;102.50;2227.20;;;;;;5079400;28;20020;-72
2020/12/14 12:10:25;;;;;;;30.95;17.23;;;102.60;2227.20;;;;;;5079006;28;20028;-73
2020/12/14 12:12:50;;;;;;;38.88;20.00;;;102.60;2227.20;;;;;;5078481;28;20510;-72
2020/12/14 12:15:16;;;;;;;53.50;28.38;;;102.70;2227.20;;;;;;5079727;28;20024;-73